createdAt,value
2022-08-17T00:00:08.090Z,0.00
2022-08-17T00:12:41.535Z,0.00
2022-08-17T00:24:08.981Z,0.00
2022-08-17T00:36:09.481Z,0.00
2022-08-17T00:48:11.504Z,0.00
2022-08-17T01:00:10.320Z,0.00
2022-08-17T01:12:10.790Z,0.00
2022-08-17T01:24:11.255Z,0.00
2022-08-17T01:36:11.665Z,0.00
2022-08-17T01:48:12.177Z,0.00
2022-08-17T02:00:12.653Z,0.00
2022-08-17T02:12:39.136Z,0.00
2022-08-17T02:24:13.518Z,0.00
2022-08-17T02:36:13.981Z,0.00
2022-08-17T02:48:14.460Z,0.00
2022-08-17T03:00:14.898Z,0.00
2022-08-17T03:12:15.401Z,0.00
2022-08-17T03:24:15.778Z,0.00
2022-08-17T03:36:16.264Z,0.00
2022-08-17T03:48:16.704Z,0.00
2022-08-17T04:00:17.176Z,0.00
2022-08-17T04:12:17.678Z,0.00
2022-08-17T04:24:18.091Z,0.00
2022-08-17T04:36:18.600Z,0.00
2022-08-17T04:48:18.976Z,0.04
2022-08-17T05:00:19.433Z,0.00
2022-08-17T05:12:19.902Z,0.00
2022-08-17T05:24:39.092Z,0.00
2022-08-17T05:36:43.723Z,0.54
2022-08-17T05:48:21.349Z,1.38
2022-08-17T06:00:21.715Z,1.60
2022-08-17T06:12:22.160Z,0.83
2022-08-17T06:24:22.601Z,1.05
2022-08-17T06:36:23.096Z,0.13
2022-08-17T06:48:23.542Z,0.43
2022-08-17T07:00:23.979Z,0.78
2022-08-17T07:12:24.432Z,0.01
2022-08-17T07:24:26.377Z,0.31
2022-08-17T07:36:29.636Z,0.55
2022-08-17T07:48:25.815Z,1.06
2022-08-17T08:00:32.135Z,1.51
2022-08-17T08:12:28.939Z,0.99
2022-08-17T08:24:30.116Z,1.14
2022-08-17T08:37:15.768Z,1.28
2022-08-17T08:48:53.955Z,0.96
2022-08-17T09:00:28.581Z,1.44
2022-08-17T09:12:29.004Z,0.99
2022-08-17T09:24:29.478Z,0.87
2022-08-17T09:36:29.956Z,1.19
2022-08-17T09:48:30.338Z,1.66
2022-08-17T10:00:30.850Z,1.42
2022-08-17T10:12:31.264Z,2.22
2022-08-17T10:24:31.732Z,1.44
2022-08-17T10:36:32.202Z,1.54
2022-08-17T10:48:32.671Z,2.64
2022-08-17T11:00:33.156Z,1.77
2022-08-17T11:12:33.572Z,1.36
2022-08-17T11:24:34.031Z,2.59
2022-08-17T11:36:34.518Z,1.14
2022-08-17T11:48:35.490Z,1.84
2022-08-17T12:00:35.388Z,1.91
2022-08-17T12:12:35.872Z,2.04
2022-08-17T12:24:36.345Z,1.31
2022-08-17T12:36:36.736Z,1.55
2022-08-17T12:48:37.248Z,1.69
2022-08-17T13:00:37.725Z,1.26
2022-08-17T13:12:38.160Z,1.52
2022-08-17T13:24:38.762Z,1.52
2022-08-17T13:36:39.108Z,1.78
2022-08-17T13:48:39.494Z,1.58
2022-08-17T14:00:40.013Z,1.24
2022-08-17T14:12:40.454Z,1.61
2022-08-17T14:24:44.634Z,1.49
2022-08-17T14:36:41.325Z,1.70
2022-08-17T14:48:41.816Z,1.23
2022-08-17T15:00:42.224Z,1.77
2022-08-17T15:12:42.738Z,0.97
2022-08-17T15:24:43.165Z,1.63
2022-08-17T15:36:49.115Z,0.43
2022-08-17T15:48:44.102Z,0.90
2022-08-17T16:00:49.918Z,0.89
2022-08-17T16:12:44.996Z,0.56
2022-08-17T16:24:47.843Z,0.55
2022-08-17T16:36:55.741Z,0.30
2022-08-17T16:48:46.384Z,0.24
2022-08-17T17:00:46.863Z,0.54
2022-08-17T17:13:00.898Z,0.42
2022-08-17T17:24:50.188Z,0.24
2022-08-17T17:36:48.187Z,0.08
2022-08-17T17:48:48.656Z,0.01
2022-08-17T18:00:49.132Z,0.11
2022-08-17T18:12:49.558Z,0.07
2022-08-17T18:24:50.047Z,0.00
2022-08-17T18:36:50.537Z,0.33
2022-08-17T18:48:50.974Z,0.00
2022-08-17T19:00:51.416Z,0.00
2022-08-17T19:12:51.969Z,0.17
2022-08-17T19:24:56.115Z,0.01
2022-08-17T19:36:52.784Z,0.10
2022-08-17T19:48:53.223Z,0.01
2022-08-17T20:00:53.683Z,0.06
2022-08-17T20:12:54.142Z,0.04
2022-08-17T20:24:54.615Z,0.01
2022-08-17T20:36:55.053Z,0.63
2022-08-17T20:48:55.501Z,0.37
2022-08-17T21:00:55.964Z,0.11
2022-08-17T21:12:56.453Z,0.01
2022-08-17T21:24:56.882Z,0.01
2022-08-17T21:36:57.291Z,0.00
2022-08-17T21:48:57.792Z,0.00
2022-08-17T22:00:58.300Z,0.60
2022-08-17T22:12:58.717Z,0.04
2022-08-17T22:24:59.167Z,0.04
2022-08-17T22:37:03.684Z,0.04
2022-08-17T22:49:00.102Z,0.01
2022-08-17T23:01:00.522Z,0.01
2022-08-17T23:13:00.974Z,0.00
2022-08-17T23:25:01.406Z,0.01
2022-08-17T23:37:01.883Z,0.01
2022-08-17T23:49:02.341Z,0.04
